sensor_id;sensor_type;location;lat;lon;timestamp;P1;durP1;ratioP1;P2;durP2;ratioP2
48327;SDS011;34136;51.022;7.082;2023-02-28T00:00:10;9.30;;;3.50;;
48327;SDS011;34136;51.022;7.082;2023-02-28T00:02:58;8.37;;;2.90;;
48327;SDS011;34136;51.022;7.082;2023-02-28T00:05:44;5.13;;;2.90;;
48327;SDS011;34136;51.022;7.082;2023-02-28T00:08:31;6.70;;;2.83;;
48327;SDS011;34136;51.022;7.082;2023-02-28T00:11:17;6.37;;;3.00;;
48327;SDS011;34136;51.022;7.082;2023-02-28T00:14:03;8.57;;;3.07;;
48327;SDS011;34136;51.022;7.082;2023-02-28T00:16:49;7.00;;;3.50;;
48327;SDS011;34136;51.022;7.082;2023-02-28T00:19:35;12.70;;;5.93;;
48327;SDS011;34136;51.022;7.082;2023-02-28T00:22:22;13.53;;;6.37;;
48327;SDS011;34136;51.022;7.082;2023-02-28T00:25:08;17.20;;;7.43;;
48327;SDS011;34136;51.022;7.082;2023-02-28T00:27:56;16.63;;;7.77;;
48327;SDS011;34136;51.022;7.082;2023-02-28T00:30:43;16.20;;;7.00;;
48327;SDS011;34136;51.022;7.082;2023-02-28T00:33:29;13.03;;;5.97;;
48327;SDS011;34136;51.022;7.082;2023-02-28T00:36:15;11.47;;;4.97;;
48327;SDS011;34136;51.022;7.082;2023-02-28T00:39:01;13.37;;;5.00;;
48327;SDS011;34136;51.022;7.082;2023-02-28T00:41:48;8.73;;;3.80;;
48327;SDS011;34136;51.022;7.082;2023-02-28T00:44:34;10.50;;;4.70;;
48327;SDS011;34136;51.022;7.082;2023-02-28T00:47:20;9.83;;;4.40;;
48327;SDS011;34136;51.022;7.082;2023-02-28T00:50:06;12.17;;;5.90;;
48327;SDS011;34136;51.022;7.082;2023-02-28T00:52:53;9.77;;;4.83;;
48327;SDS011;34136;51.022;7.082;2023-02-28T00:55:39;5.80;;;3.40;;
48327;SDS011;34136;51.022;7.082;2023-02-28T00:58:25;7.67;;;3.10;;
48327;SDS011;34136;51.022;7.082;2023-02-28T01:01:12;6.03;;;3.30;;
48327;SDS011;34136;51.022;7.082;2023-02-28T01:03:58;9.97;;;4.20;;
48327;SDS011;34136;51.022;7.082;2023-02-28T01:06:44;7.63;;;4.53;;
48327;SDS011;34136;51.022;7.082;2023-02-28T01:09:30;8.80;;;4.07;;
48327;SDS011;34136;51.022;7.082;2023-02-28T01:12:17;6.47;;;4.37;;
48327;SDS011;34136;51.022;7.082;2023-02-28T01:15:06;6.70;;;3.47;;
48327;SDS011;34136;51.022;7.082;2023-02-28T01:17:52;5.97;;;3.50;;
48327;SDS011;34136;51.022;7.082;2023-02-28T01:20:39;5.33;;;3.10;;
48327;SDS011;34136;51.022;7.082;2023-02-28T01:23:43;5.63;;;3.20;;
48327;SDS011;34136;51.022;7.082;2023-02-28T01:26:31;4.27;;;2.70;;
48327;SDS011;34136;51.022;7.082;2023-02-28T01:29:17;4.77;;;2.40;;
48327;SDS011;34136;51.022;7.082;2023-02-28T01:32:04;5.20;;;2.27;;
48327;SDS011;34136;51.022;7.082;2023-02-28T01:34:50;4.63;;;2.60;;
48327;SDS011;34136;51.022;7.082;2023-02-28T01:37:37;5.73;;;2.83;;
48327;SDS011;34136;51.022;7.082;2023-02-28T01:40:23;3.93;;;2.30;;
48327;SDS011;34136;51.022;7.082;2023-02-28T01:43:52;5.23;;;2.63;;
48327;SDS011;34136;51.022;7.082;2023-02-28T01:46:46;5.03;;;2.93;;
48327;SDS011;34136;51.022;7.082;2023-02-28T01:49:33;4.63;;;3.13;;
48327;SDS011;34136;51.022;7.082;2023-02-28T01:52:38;5.30;;;3.10;;
48327;SDS011;34136;51.022;7.082;2023-02-28T01:55:24;5.70;;;2.63;;
48327;SDS011;34136;51.022;7.082;2023-02-28T01:58:13;5.43;;;3.10;;
48327;SDS011;34136;51.022;7.082;2023-02-28T02:01:00;4.83;;;3.37;;
48327;SDS011;34136;51.022;7.082;2023-02-28T02:03:47;4.37;;;2.13;;
48327;SDS011;34136;51.022;7.082;2023-02-28T02:06:40;5.87;;;2.37;;
48327;SDS011;34136;51.022;7.082;2023-02-28T02:09:30;6.67;;;2.63;;
48327;SDS011;34136;51.022;7.082;2023-02-28T02:12:28;4.03;;;2.73;;
48327;SDS011;34136;51.022;7.082;2023-02-28T02:15:17;4.10;;;2.63;;
48327;SDS011;34136;51.022;7.082;2023-02-28T02:18:27;4.77;;;2.03;;
48327;SDS011;34136;51.022;7.082;2023-02-28T02:27:31;4.27;;;2.40;;
48327;SDS011;34136;51.022;7.082;2023-02-28T02:37:01;3.53;;;2.20;;
48327;SDS011;34136;51.022;7.082;2023-02-28T02:40:03;5.07;;;2.20;;
48327;SDS011;34136;51.022;7.082;2023-02-28T02:43:15;5.53;;;2.10;;
48327;SDS011;34136;51.022;7.082;2023-02-28T02:46:07;4.60;;;2.17;;
48327;SDS011;34136;51.022;7.082;2023-02-28T02:49:21;5.90;;;2.50;;
48327;SDS011;34136;51.022;7.082;2023-02-28T02:52:34;5.03;;;2.70;;
48327;SDS011;34136;51.022;7.082;2023-02-28T02:55:26;4.77;;;2.37;;
48327;SDS011;34136;51.022;7.082;2023-02-28T02:58:14;4.97;;;2.40;;
48327;SDS011;34136;51.022;7.082;2023-02-28T03:01:04;4.23;;;2.47;;
48327;SDS011;34136;51.022;7.082;2023-02-28T03:03:51;6.23;;;2.80;;
48327;SDS011;34136;51.022;7.082;2023-02-28T03:06:37;5.07;;;2.07;;
48327;SDS011;34136;51.022;7.082;2023-02-28T03:09:23;5.70;;;2.23;;
48327;SDS011;34136;51.022;7.082;2023-02-28T03:12:11;3.93;;;2.23;;
48327;SDS011;34136;51.022;7.082;2023-02-28T03:15:07;5.10;;;2.30;;
48327;SDS011;34136;51.022;7.082;2023-02-28T03:18:10;3.97;;;2.53;;
48327;SDS011;34136;51.022;7.082;2023-02-28T03:24:18;5.83;;;2.30;;
48327;SDS011;34136;51.022;7.082;2023-02-28T03:30:14;5.50;;;2.23;;
48327;SDS011;34136;51.022;7.082;2023-02-28T03:33:14;4.43;;;2.33;;
48327;SDS011;34136;51.022;7.082;2023-02-28T03:36:08;4.20;;;2.10;;
48327;SDS011;34136;51.022;7.082;2023-02-28T03:38:58;11.70;;;4.60;;
48327;SDS011;34136;51.022;7.082;2023-02-28T03:44:41;8.03;;;3.47;;
48327;SDS011;34136;51.022;7.082;2023-02-28T03:47:39;5.43;;;2.70;;
48327;SDS011;34136;51.022;7.082;2023-02-28T03:50:40;6.40;;;2.67;;
48327;SDS011;34136;51.022;7.082;2023-02-28T03:53:33;4.27;;;2.50;;
48327;SDS011;34136;51.022;7.082;2023-02-28T03:56:33;5.07;;;2.47;;
48327;SDS011;34136;51.022;7.082;2023-02-28T03:59:28;5.33;;;2.53;;
48327;SDS011;34136;51.022;7.082;2023-02-28T04:02:20;5.60;;;2.93;;
48327;SDS011;34136;51.022;7.082;2023-02-28T04:05:07;4.77;;;2.43;;
48327;SDS011;34136;51.022;7.082;2023-02-28T04:07:53;6.67;;;3.07;;
48327;SDS011;34136;51.022;7.082;2023-02-28T04:11:00;5.87;;;2.83;;
48327;SDS011;34136;51.022;7.082;2023-02-28T04:13:54;5.97;;;2.97;;
48327;SDS011;34136;51.022;7.082;2023-02-28T04:16:41;7.33;;;3.17;;
48327;SDS011;34136;51.022;7.082;2023-02-28T04:19:28;6.67;;;2.90;;
48327;SDS011;34136;51.022;7.082;2023-02-28T04:22:14;6.30;;;3.53;;
48327;SDS011;34136;51.022;7.082;2023-02-28T04:25:01;8.87;;;3.13;;
48327;SDS011;34136;51.022;7.082;2023-02-28T04:27:46;4.50;;;2.37;;
48327;SDS011;34136;51.022;7.082;2023-02-28T04:30:32;5.57;;;3.07;;
48327;SDS011;34136;51.022;7.082;2023-02-28T04:33:18;4.80;;;2.80;;
48327;SDS011;34136;51.022;7.082;2023-02-28T04:36:06;5.87;;;2.77;;
48327;SDS011;34136;51.022;7.082;2023-02-28T04:38:54;5.63;;;2.87;;
48327;SDS011;34136;51.022;7.082;2023-02-28T04:41:41;5.00;;;2.90;;
48327;SDS011;34136;51.022;7.082;2023-02-28T04:44:27;4.40;;;2.60;;
48327;SDS011;34136;51.022;7.082;2023-02-28T04:47:14;5.50;;;2.60;;
48327;SDS011;34136;51.022;7.082;2023-02-28T04:49:59;4.93;;;2.30;;
48327;SDS011;34136;51.022;7.082;2023-02-28T04:52:46;6.63;;;2.90;;
48327;SDS011;34136;51.022;7.082;2023-02-28T04:55:32;6.23;;;2.60;;
48327;SDS011;34136;51.022;7.082;2023-02-28T04:58:18;3.80;;;2.30;;
48327;SDS011;34136;51.022;7.082;2023-02-28T05:01:06;5.63;;;2.50;;
48327;SDS011;34136;51.022;7.082;2023-02-28T05:04:04;5.13;;;2.33;;
48327;SDS011;34136;51.022;7.082;2023-02-28T05:06:50;5.47;;;2.40;;
48327;SDS011;34136;51.022;7.082;2023-02-28T05:09:37;6.50;;;2.47;;
48327;SDS011;34136;51.022;7.082;2023-02-28T05:12:23;6.60;;;2.73;;
48327;SDS011;34136;51.022;7.082;2023-02-28T05:15:13;6.43;;;2.90;;
48327;SDS011;34136;51.022;7.082;2023-02-28T05:18:00;4.43;;;2.30;;
48327;SDS011;34136;51.022;7.082;2023-02-28T05:20:46;3.10;;;2.00;;
48327;SDS011;34136;51.022;7.082;2023-02-28T05:23:33;4.93;;;2.50;;
48327;SDS011;34136;51.022;7.082;2023-02-28T05:26:19;4.87;;;2.20;;
48327;SDS011;34136;51.022;7.082;2023-02-28T05:29:05;3.13;;;2.00;;
48327;SDS011;34136;51.022;7.082;2023-02-28T05:31:52;4.03;;;2.30;;
48327;SDS011;34136;51.022;7.082;2023-02-28T05:34:38;4.87;;;2.57;;
48327;SDS011;34136;51.022;7.082;2023-02-28T05:37:25;4.80;;;2.50;;
48327;SDS011;34136;51.022;7.082;2023-02-28T05:40:12;6.30;;;2.93;;
48327;SDS011;34136;51.022;7.082;2023-02-28T05:42:58;4.80;;;2.67;;
48327;SDS011;34136;51.022;7.082;2023-02-28T05:45:44;6.97;;;2.70;;
48327;SDS011;34136;51.022;7.082;2023-02-28T05:48:31;6.13;;;3.03;;
48327;SDS011;34136;51.022;7.082;2023-02-28T05:51:17;5.43;;;2.57;;
48327;SDS011;34136;51.022;7.082;2023-02-28T05:54:03;5.03;;;2.87;;
48327;SDS011;34136;51.022;7.082;2023-02-28T05:56:50;3.63;;;2.53;;
48327;SDS011;34136;51.022;7.082;2023-02-28T05:59:36;3.37;;;2.40;;
48327;SDS011;34136;51.022;7.082;2023-02-28T06:02:23;6.83;;;3.10;;
48327;SDS011;34136;51.022;7.082;2023-02-28T06:05:18;7.80;;;2.80;;
48327;SDS011;34136;51.022;7.082;2023-02-28T06:08:04;5.80;;;2.90;;
48327;SDS011;34136;51.022;7.082;2023-02-28T06:10:50;6.13;;;2.70;;
48327;SDS011;34136;51.022;7.082;2023-02-28T06:13:36;5.10;;;2.97;;
48327;SDS011;34136;51.022;7.082;2023-02-28T06:16:23;5.30;;;2.90;;
48327;SDS011;34136;51.022;7.082;2023-02-28T06:19:10;4.30;;;2.90;;
48327;SDS011;34136;51.022;7.082;2023-02-28T06:21:57;5.80;;;2.90;;
48327;SDS011;34136;51.022;7.082;2023-02-28T06:24:43;6.40;;;2.87;;
48327;SDS011;34136;51.022;7.082;2023-02-28T06:27:30;6.60;;;3.03;;
48327;SDS011;34136;51.022;7.082;2023-02-28T06:30:17;4.17;;;2.83;;
48327;SDS011;34136;51.022;7.082;2023-02-28T06:33:03;5.47;;;3.03;;
48327;SDS011;34136;51.022;7.082;2023-02-28T06:35:50;3.90;;;2.70;;
48327;SDS011;34136;51.022;7.082;2023-02-28T06:38:37;8.33;;;3.00;;
48327;SDS011;34136;51.022;7.082;2023-02-28T06:41:26;4.43;;;2.80;;
48327;SDS011;34136;51.022;7.082;2023-02-28T06:44:14;4.13;;;3.00;;
48327;SDS011;34136;51.022;7.082;2023-02-28T06:47:03;5.80;;;3.10;;
48327;SDS011;34136;51.022;7.082;2023-02-28T06:49:51;4.63;;;2.70;;
48327;SDS011;34136;51.022;7.082;2023-02-28T06:52:37;6.17;;;2.87;;
48327;SDS011;34136;51.022;7.082;2023-02-28T06:55:23;3.67;;;2.67;;
48327;SDS011;34136;51.022;7.082;2023-02-28T06:58:09;3.90;;;2.30;;
48327;SDS011;34136;51.022;7.082;2023-02-28T07:00:55;5.80;;;2.83;;
48327;SDS011;34136;51.022;7.082;2023-02-28T07:03:42;5.87;;;2.67;;
48327;SDS011;34136;51.022;7.082;2023-02-28T07:06:28;5.77;;;2.90;;
48327;SDS011;34136;51.022;7.082;2023-02-28T07:09:15;6.93;;;2.80;;
48327;SDS011;34136;51.022;7.082;2023-02-28T07:12:01;5.07;;;2.50;;
48327;SDS011;34136;51.022;7.082;2023-02-28T07:14:47;4.93;;;2.40;;
48327;SDS011;34136;51.022;7.082;2023-02-28T07:17:34;4.40;;;2.20;;
48327;SDS011;34136;51.022;7.082;2023-02-28T07:20:20;6.13;;;2.30;;
48327;SDS011;34136;51.022;7.082;2023-02-28T07:23:06;5.27;;;2.30;;
48327;SDS011;34136;51.022;7.082;2023-02-28T07:25:52;3.70;;;2.33;;
48327;SDS011;34136;51.022;7.082;2023-02-28T07:28:38;3.13;;;1.93;;
48327;SDS011;34136;51.022;7.082;2023-02-28T07:31:24;7.73;;;2.40;;
48327;SDS011;34136;51.022;7.082;2023-02-28T07:34:10;5.00;;;2.43;;
48327;SDS011;34136;51.022;7.082;2023-02-28T07:36:57;5.17;;;2.40;;
48327;SDS011;34136;51.022;7.082;2023-02-28T07:39:43;3.37;;;1.93;;
48327;SDS011;34136;51.022;7.082;2023-02-28T07:42:29;4.40;;;2.30;;
48327;SDS011;34136;51.022;7.082;2023-02-28T07:45:15;3.23;;;2.03;;
48327;SDS011;34136;51.022;7.082;2023-02-28T07:48:01;3.77;;;1.97;;
48327;SDS011;34136;51.022;7.082;2023-02-28T07:50:55;3.10;;;1.80;;
48327;SDS011;34136;51.022;7.082;2023-02-28T07:53:41;3.60;;;2.10;;
48327;SDS011;34136;51.022;7.082;2023-02-28T07:56:27;3.90;;;1.80;;
48327;SDS011;34136;51.022;7.082;2023-02-28T07:59:14;3.53;;;2.10;;
48327;SDS011;34136;51.022;7.082;2023-02-28T08:02:00;3.47;;;1.87;;
48327;SDS011;34136;51.022;7.082;2023-02-28T08:05:05;3.40;;;1.70;;
48327;SDS011;34136;51.022;7.082;2023-02-28T08:07:52;4.67;;;1.70;;
48327;SDS011;34136;51.022;7.082;2023-02-28T08:10:38;2.93;;;1.90;;
48327;SDS011;34136;51.022;7.082;2023-02-28T08:13:24;2.00;;;1.53;;
48327;SDS011;34136;51.022;7.082;2023-02-28T08:16:11;5.73;;;1.60;;
48327;SDS011;34136;51.022;7.082;2023-02-28T08:18:59;6.87;;;1.80;;
48327;SDS011;34136;51.022;7.082;2023-02-28T08:21:45;2.87;;;1.87;;
48327;SDS011;34136;51.022;7.082;2023-02-28T08:24:31;2.20;;;1.27;;
48327;SDS011;34136;51.022;7.082;2023-02-28T08:27:18;3.37;;;1.50;;
48327;SDS011;34136;51.022;7.082;2023-02-28T08:30:04;3.13;;;1.50;;
48327;SDS011;34136;51.022;7.082;2023-02-28T08:32:51;5.27;;;2.40;;
48327;SDS011;34136;51.022;7.082;2023-02-28T08:35:37;3.97;;;1.90;;
48327;SDS011;34136;51.022;7.082;2023-02-28T08:38:24;5.20;;;3.33;;
48327;SDS011;34136;51.022;7.082;2023-02-28T08:41:11;3.27;;;1.77;;
48327;SDS011;34136;51.022;7.082;2023-02-28T08:43:58;3.97;;;1.73;;
48327;SDS011;34136;51.022;7.082;2023-02-28T08:46:44;3.07;;;1.73;;
48327;SDS011;34136;51.022;7.082;2023-02-28T08:49:30;2.20;;;1.33;;
48327;SDS011;34136;51.022;7.082;2023-02-28T08:52:17;4.07;;;1.63;;
48327;SDS011;34136;51.022;7.082;2023-02-28T08:55:03;5.23;;;2.90;;
48327;SDS011;34136;51.022;7.082;2023-02-28T08:57:50;6.50;;;2.17;;
48327;SDS011;34136;51.022;7.082;2023-02-28T09:00:36;6.27;;;3.50;;
48327;SDS011;34136;51.022;7.082;2023-02-28T09:03:22;3.93;;;1.87;;
48327;SDS011;34136;51.022;7.082;2023-02-28T09:06:09;2.80;;;1.73;;
48327;SDS011;34136;51.022;7.082;2023-02-28T09:08:56;5.57;;;2.20;;
48327;SDS011;34136;51.022;7.082;2023-02-28T09:11:43;4.73;;;2.20;;
48327;SDS011;34136;51.022;7.082;2023-02-28T09:14:29;2.50;;;1.40;;
48327;SDS011;34136;51.022;7.082;2023-02-28T09:17:15;3.63;;;2.30;;
48327;SDS011;34136;51.022;7.082;2023-02-28T09:20:02;2.00;;;1.20;;
48327;SDS011;34136;51.022;7.082;2023-02-28T09:22:48;5.33;;;2.00;;
48327;SDS011;34136;51.022;7.082;2023-02-28T09:25:34;5.83;;;1.80;;
48327;SDS011;34136;51.022;7.082;2023-02-28T09:28:21;3.87;;;1.80;;
48327;SDS011;34136;51.022;7.082;2023-02-28T09:31:16;2.93;;;1.43;;
48327;SDS011;34136;51.022;7.082;2023-02-28T09:34:03;2.23;;;1.20;;
48327;SDS011;34136;51.022;7.082;2023-02-28T09:36:50;2.20;;;1.30;;
48327;SDS011;34136;51.022;7.082;2023-02-28T09:39:36;3.45;;;1.30;;
48327;SDS011;34136;51.022;7.082;2023-02-28T09:42:32;1.92;;;1.13;;
48327;SDS011;34136;51.022;7.082;2023-02-28T09:45:22;2.03;;;1.25;;
48327;SDS011;34136;51.022;7.082;2023-02-28T09:48:18;1.77;;;1.00;;
48327;SDS011;34136;51.022;7.082;2023-02-28T09:51:28;5.00;;;1.33;;
48327;SDS011;34136;51.022;7.082;2023-02-28T09:54:29;3.83;;;1.30;;
48327;SDS011;34136;51.022;7.082;2023-02-28T09:57:19;2.33;;;1.13;;
48327;SDS011;34136;51.022;7.082;2023-02-28T10:09:07;2.05;;;1.30;;
48327;SDS011;34136;51.022;7.082;2023-02-28T10:12:04;2.40;;;1.10;;
48327;SDS011;34136;51.022;7.082;2023-02-28T10:14:51;2.25;;;1.10;;
48327;SDS011;34136;51.022;7.082;2023-02-28T10:17:40;3.80;;;1.60;;
48327;SDS011;34136;51.022;7.082;2023-02-28T10:20:28;2.85;;;1.40;;
48327;SDS011;34136;51.022;7.082;2023-02-28T10:23:28;2.05;;;1.25;;
48327;SDS011;34136;51.022;7.082;2023-02-28T10:26:19;2.30;;;1.38;;
48327;SDS011;34136;51.022;7.082;2023-02-28T10:29:07;2.95;;;1.20;;
48327;SDS011;34136;51.022;7.082;2023-02-28T10:31:54;2.58;;;1.40;;
48327;SDS011;34136;51.022;7.082;2023-02-28T10:34:40;5.63;;;1.60;;
48327;SDS011;34136;51.022;7.082;2023-02-28T10:37:27;2.22;;;1.30;;
48327;SDS011;34136;51.022;7.082;2023-02-28T10:48:50;2.83;;;1.80;;
48327;SDS011;34136;51.022;7.082;2023-02-28T10:51:43;2.80;;;1.42;;
48327;SDS011;34136;51.022;7.082;2023-02-28T10:54:31;2.72;;;1.40;;
48327;SDS011;34136;51.022;7.082;2023-02-28T10:57:21;2.65;;;1.40;;
48327;SDS011;34136;51.022;7.082;2023-02-28T11:00:17;3.70;;;2.40;;
48327;SDS011;34136;51.022;7.082;2023-02-28T11:03:06;2.60;;;1.52;;
48327;SDS011;34136;51.022;7.082;2023-02-28T11:13:02;2.83;;;1.58;;
48327;SDS011;34136;51.022;7.082;2023-02-28T11:15:53;2.67;;;1.65;;
48327;SDS011;34136;51.022;7.082;2023-02-28T11:18:51;2.47;;;1.55;;
48327;SDS011;34136;51.022;7.082;2023-02-28T11:21:52;3.15;;;1.80;;
48327;SDS011;34136;51.022;7.082;2023-02-28T11:24:44;4.25;;;1.70;;
48327;SDS011;34136;51.022;7.082;2023-02-28T11:27:40;2.93;;;1.77;;
48327;SDS011;34136;51.022;7.082;2023-02-28T11:30:37;5.55;;;1.80;;
48327;SDS011;34136;51.022;7.082;2023-02-28T11:36:33;3.38;;;1.83;;
48327;SDS011;34136;51.022;7.082;2023-02-28T11:39:19;2.50;;;1.50;;
48327;SDS011;34136;51.022;7.082;2023-02-28T11:59:02;3.22;;;1.52;;
48327;SDS011;34136;51.022;7.082;2023-02-28T12:02:28;4.70;;;2.15;;
48327;SDS011;34136;51.022;7.082;2023-02-28T12:05:27;4.45;;;1.73;;
48327;SDS011;34136;51.022;7.082;2023-02-28T12:14:59;2.95;;;1.90;;
48327;SDS011;34136;51.022;7.082;2023-02-28T12:25:35;2.17;;;1.73;;
48327;SDS011;34136;51.022;7.082;2023-02-28T12:27:53;4.80;;;1.90;;
48327;SDS011;34136;51.022;7.082;2023-02-28T12:30:42;4.65;;;2.05;;
48327;SDS011;34136;51.022;7.082;2023-02-28T12:33:36;4.80;;;2.35;;
48327;SDS011;34136;51.022;7.082;2023-02-28T12:36:28;3.67;;;1.77;;
48327;SDS011;34136;51.022;7.082;2023-02-28T12:39:19;3.10;;;2.10;;
48327;SDS011;34136;51.022;7.082;2023-02-28T12:42:26;3.42;;;1.88;;
48327;SDS011;34136;51.022;7.082;2023-02-28T12:45:17;3.95;;;2.00;;
48327;SDS011;34136;51.022;7.082;2023-02-28T12:48:10;4.00;;;2.10;;
48327;SDS011;34136;51.022;7.082;2023-02-28T12:51:02;4.18;;;2.00;;
48327;SDS011;34136;51.022;7.082;2023-02-28T13:00:13;3.88;;;2.10;;
48327;SDS011;34136;51.022;7.082;2023-02-28T13:06:30;3.95;;;2.35;;
48327;SDS011;34136;51.022;7.082;2023-02-28T13:09:36;3.22;;;2.13;;
48327;SDS011;34136;51.022;7.082;2023-02-28T13:12:27;3.40;;;2.00;;
48327;SDS011;34136;51.022;7.082;2023-02-28T13:18:05;4.97;;;1.98;;
48327;SDS011;34136;51.022;7.082;2023-02-28T13:21:25;3.85;;;2.15;;
48327;SDS011;34136;51.022;7.082;2023-02-28T13:27:31;3.65;;;2.10;;
48327;SDS011;34136;51.022;7.082;2023-02-28T13:33:37;3.65;;;2.30;;
48327;SDS011;34136;51.022;7.082;2023-02-28T13:36:43;2.92;;;1.98;;
48327;SDS011;34136;51.022;7.082;2023-02-28T13:45:29;4.22;;;2.03;;
48327;SDS011;34136;51.022;7.082;2023-02-28T13:48:16;3.63;;;2.00;;
48327;SDS011;34136;51.022;7.082;2023-02-28T14:04:46;4.53;;;2.25;;
48327;SDS011;34136;51.022;7.082;2023-02-28T14:07:40;3.58;;;2.20;;
48327;SDS011;34136;51.022;7.082;2023-02-28T14:11:03;3.88;;;2.33;;
48327;SDS011;34136;51.022;7.082;2023-02-28T14:13:52;4.32;;;2.83;;
48327;SDS011;34136;51.022;7.082;2023-02-28T14:16:39;4.38;;;2.55;;
48327;SDS011;34136;51.022;7.082;2023-02-28T14:19:29;4.63;;;2.40;;
48327;SDS011;34136;51.022;7.082;2023-02-28T14:22:24;3.90;;;2.50;;
48327;SDS011;34136;51.022;7.082;2023-02-28T14:35:48;4.15;;;2.58;;
48327;SDS011;34136;51.022;7.082;2023-02-28T14:38:57;3.85;;;2.63;;
48327;SDS011;34136;51.022;7.082;2023-02-28T14:41:47;4.85;;;2.72;;
48327;SDS011;34136;51.022;7.082;2023-02-28T14:44:56;5.47;;;2.53;;
48327;SDS011;34136;51.022;7.082;2023-02-28T14:47:42;4.40;;;2.60;;
48327;SDS011;34136;51.022;7.082;2023-02-28T14:50:31;4.93;;;2.50;;
48327;SDS011;34136;51.022;7.082;2023-02-28T14:53:22;3.45;;;2.08;;
48327;SDS011;34136;51.022;7.082;2023-02-28T14:59:28;3.15;;;2.05;;
48327;SDS011;34136;51.022;7.082;2023-02-28T15:02:21;3.38;;;2.40;;
48327;SDS011;34136;51.022;7.082;2023-02-28T15:09:09;3.97;;;2.28;;
48327;SDS011;34136;51.022;7.082;2023-02-28T15:12:04;2.70;;;2.00;;
48327;SDS011;34136;51.022;7.082;2023-02-28T15:18:50;5.82;;;2.20;;
48327;SDS011;34136;51.022;7.082;2023-02-28T15:21:44;3.47;;;2.20;;
48327;SDS011;34136;51.022;7.082;2023-02-28T15:24:50;4.18;;;2.33;;
48327;SDS011;34136;51.022;7.082;2023-02-28T15:27:39;4.72;;;2.72;;
48327;SDS011;34136;51.022;7.082;2023-02-28T15:30:31;3.47;;;2.28;;
48327;SDS011;34136;51.022;7.082;2023-02-28T15:36:10;2.95;;;2.10;;
48327;SDS011;34136;51.022;7.082;2023-02-28T15:38:57;3.03;;;2.00;;
48327;SDS011;34136;51.022;7.082;2023-02-28T15:41:43;3.83;;;2.03;;
48327;SDS011;34136;51.022;7.082;2023-02-28T15:44:33;4.05;;;2.20;;
48327;SDS011;34136;51.022;7.082;2023-02-28T15:47:23;4.57;;;2.70;;
48327;SDS011;34136;51.022;7.082;2023-02-28T15:50:14;4.10;;;2.35;;
48327;SDS011;34136;51.022;7.082;2023-02-28T15:53:00;5.10;;;2.42;;
48327;SDS011;34136;51.022;7.082;2023-02-28T15:56:00;5.47;;;3.33;;
48327;SDS011;34136;51.022;7.082;2023-02-28T15:59:14;9.82;;;6.05;;
48327;SDS011;34136;51.022;7.082;2023-02-28T16:02:04;4.15;;;2.72;;
48327;SDS011;34136;51.022;7.082;2023-02-28T16:31:25;6.60;;;3.28;;
48327;SDS011;34136;51.022;7.082;2023-02-28T16:34:11;6.18;;;2.88;;
48327;SDS011;34136;51.022;7.082;2023-02-28T16:36:58;7.45;;;3.55;;
48327;SDS011;34136;51.022;7.082;2023-02-28T16:39:44;4.88;;;2.50;;
48327;SDS011;34136;51.022;7.082;2023-02-28T16:42:31;10.70;;;5.40;;
48327;SDS011;34136;51.022;7.082;2023-02-28T16:45:18;9.02;;;4.53;;
48327;SDS011;34136;51.022;7.082;2023-02-28T16:48:08;2.55;;;1.80;;
48327;SDS011;34136;51.022;7.082;2023-02-28T16:50:59;5.30;;;2.20;;
48327;SDS011;34136;51.022;7.082;2023-02-28T16:53:45;3.05;;;2.28;;
48327;SDS011;34136;51.022;7.082;2023-02-28T16:56:34;4.57;;;2.88;;
48327;SDS011;34136;51.022;7.082;2023-02-28T16:59:22;4.30;;;2.47;;
48327;SDS011;34136;51.022;7.082;2023-02-28T17:02:14;8.80;;;2.88;;
48327;SDS011;34136;51.022;7.082;2023-02-28T17:07:49;4.85;;;2.10;;
48327;SDS011;34136;51.022;7.082;2023-02-28T17:10:36;4.60;;;3.00;;
48327;SDS011;34136;51.022;7.082;2023-02-28T17:13:22;6.25;;;2.60;;
48327;SDS011;34136;51.022;7.082;2023-02-28T17:16:17;4.82;;;2.35;;
48327;SDS011;34136;51.022;7.082;2023-02-28T17:19:13;3.72;;;2.47;;
48327;SDS011;34136;51.022;7.082;2023-02-28T17:22:01;6.25;;;2.72;;
48327;SDS011;34136;51.022;7.082;2023-02-28T17:24:47;5.80;;;2.42;;
48327;SDS011;34136;51.022;7.082;2023-02-28T17:27:33;4.65;;;2.70;;
48327;SDS011;34136;51.022;7.082;2023-02-28T17:30:21;8.48;;;3.20;;
48327;SDS011;34136;51.022;7.082;2023-02-28T17:33:16;9.45;;;5.18;;
48327;SDS011;34136;51.022;7.082;2023-02-28T17:36:14;8.27;;;4.20;;
48327;SDS011;34136;51.022;7.082;2023-02-28T17:39:03;5.82;;;3.63;;
48327;SDS011;34136;51.022;7.082;2023-02-28T17:41:54;6.07;;;3.10;;
48327;SDS011;34136;51.022;7.082;2023-02-28T17:44:41;5.47;;;2.90;;
48327;SDS011;34136;51.022;7.082;2023-02-28T17:47:27;5.15;;;3.13;;
48327;SDS011;34136;51.022;7.082;2023-02-28T17:50:14;5.60;;;3.42;;
48327;SDS011;34136;51.022;7.082;2023-02-28T17:53:06;5.45;;;3.30;;
48327;SDS011;34136;51.022;7.082;2023-02-28T17:55:53;8.38;;;3.88;;
48327;SDS011;34136;51.022;7.082;2023-02-28T17:58:41;6.50;;;3.53;;
48327;SDS011;34136;51.022;7.082;2023-02-28T18:01:27;5.72;;;3.38;;
48327;SDS011;34136;51.022;7.082;2023-02-28T18:04:13;5.18;;;3.20;;
48327;SDS011;34136;51.022;7.082;2023-02-28T18:07:00;5.95;;;3.03;;
48327;SDS011;34136;51.022;7.082;2023-02-28T18:09:46;4.00;;;2.78;;
48327;SDS011;34136;51.022;7.082;2023-02-28T18:12:32;5.50;;;3.03;;
48327;SDS011;34136;51.022;7.082;2023-02-28T18:15:19;7.03;;;3.13;;
48327;SDS011;34136;51.022;7.082;2023-02-28T18:18:06;6.53;;;3.10;;
48327;SDS011;34136;51.022;7.082;2023-02-28T18:20:52;6.80;;;3.70;;
48327;SDS011;34136;51.022;7.082;2023-02-28T18:23:39;5.45;;;3.20;;
48327;SDS011;34136;51.022;7.082;2023-02-28T18:26:25;8.50;;;3.78;;
48327;SDS011;34136;51.022;7.082;2023-02-28T19:38:31;7.87;;;5.20;;
48327;SDS011;34136;51.022;7.082;2023-02-28T19:41:17;9.67;;;4.87;;
48327;SDS011;34136;51.022;7.082;2023-02-28T19:44:04;9.60;;;6.13;;
48327;SDS011;34136;51.022;7.082;2023-02-28T19:46:50;9.67;;;5.07;;
48327;SDS011;34136;51.022;7.082;2023-02-28T19:49:36;8.40;;;5.07;;
48327;SDS011;34136;51.022;7.082;2023-02-28T19:52:23;14.60;;;6.07;;
48327;SDS011;34136;51.022;7.082;2023-02-28T19:55:10;10.10;;;6.67;;
48327;SDS011;34136;51.022;7.082;2023-02-28T19:57:56;11.23;;;6.60;;
48327;SDS011;34136;51.022;7.082;2023-02-28T20:00:42;10.93;;;5.67;;
48327;SDS011;34136;51.022;7.082;2023-02-28T20:03:28;12.90;;;7.00;;
48327;SDS011;34136;51.022;7.082;2023-02-28T20:06:20;8.67;;;5.40;;
48327;SDS011;34136;51.022;7.082;2023-02-28T20:09:09;8.70;;;5.73;;
48327;SDS011;34136;51.022;7.082;2023-02-28T20:11:55;9.50;;;6.17;;
48327;SDS011;34136;51.022;7.082;2023-02-28T20:14:41;12.83;;;6.07;;
48327;SDS011;34136;51.022;7.082;2023-02-28T20:17:27;10.30;;;6.20;;
48327;SDS011;34136;51.022;7.082;2023-02-28T20:20:14;12.07;;;6.13;;
48327;SDS011;34136;51.022;7.082;2023-02-28T20:23:00;7.80;;;5.30;;
48327;SDS011;34136;51.022;7.082;2023-02-28T20:25:46;8.00;;;5.50;;
48327;SDS011;34136;51.022;7.082;2023-02-28T20:28:32;11.70;;;6.27;;
48327;SDS011;34136;51.022;7.082;2023-02-28T20:31:20;9.63;;;6.00;;
48327;SDS011;34136;51.022;7.082;2023-02-28T21:48:33;9.50;;;5.97;;
48327;SDS011;34136;51.022;7.082;2023-02-28T21:51:39;10.80;;;6.50;;
48327;SDS011;34136;51.022;7.082;2023-02-28T21:54:26;7.27;;;5.53;;
48327;SDS011;34136;51.022;7.082;2023-02-28T21:57:13;9.53;;;6.23;;
48327;SDS011;34136;51.022;7.082;2023-02-28T21:59:59;11.80;;;6.80;;
48327;SDS011;34136;51.022;7.082;2023-02-28T22:02:45;11.13;;;6.60;;
48327;SDS011;34136;51.022;7.082;2023-02-28T22:05:31;10.73;;;7.43;;
48327;SDS011;34136;51.022;7.082;2023-02-28T22:08:17;16.27;;;10.03;;
48327;SDS011;34136;51.022;7.082;2023-02-28T22:11:04;11.77;;;7.87;;
48327;SDS011;34136;51.022;7.082;2023-02-28T22:13:51;11.23;;;7.30;;
48327;SDS011;34136;51.022;7.082;2023-02-28T22:16:38;10.63;;;7.17;;